Time;durP1;ratioP1;P1;durP2;ratioP2;P2;SDS_P1;SDS_P2;PMS_P1;PMS_P2;Temp;Humidity;BMP_temperature;BMP_pressure;BME280_temperature;BME280_humidity;BME280_pressure;Samples;Min_cycle;Max_cycle;Signal;HPM_P1;HPM_P2
2023/03/23 00:01:00;;;;;;;8.18;5.05;;;9.80;99.90;;;;;;5110592;28;21315;-63
2023/03/23 00:03:28;;;;;;;10.32;5.57;;;9.90;99.90;;;;;;5112472;28;20069;-63
2023/03/23 00:06:05;;;;;;;9.35;6.75;;;9.90;99.90;;;;;;5112514;28;20052;-63
2023/03/23 00:08:37;;;;;;;14.10;8.45;;;9.90;99.90;;;;;;5111109;28;20491;-64
2023/03/23 00:11:04;;;;;;;13.60;8.63;;;10.00;99.90;;;;;;5111205;28;20480;-63
2023/03/23 00:13:32;;;;;;;15.43;10.35;;;10.00;99.90;;;;;;5112074;28;20077;-63
2023/03/23 00:15:59;;;;;;;19.73;10.88;;;10.00;99.90;;;;;;5109241;28;20043;-64
2023/03/23 00:18:26;;;;;;;11.88;7.15;;;10.00;99.90;;;;;;5111339;28;20487;-63
2023/03/23 00:20:55;;;;;;;9.35;5.70;;;10.00;99.90;;;;;;5108503;28;20560;-64
2023/03/23 00:23:24;;;;;;;8.65;5.95;;;9.90;99.90;;;;;;5112069;28;20048;-63
2023/03/23 00:25:56;;;;;;;6.85;5.28;;;9.90;99.90;;;;;;5111383;28;20453;-64
2023/03/23 00:28:24;;;;;;;7.38;5.30;;;9.90;99.90;;;;;;5109944;28;20563;-63
2023/03/23 00:30:56;;;;;;;7.00;5.07;;;9.80;99.90;;;;;;5112141;28;20044;-63
2023/03/23 00:33:24;;;;;;;10.35;6.38;;;9.80;99.90;;;;;;5112252;28;20047;-63
2023/03/23 00:35:52;;;;;;;10.18;7.10;;;9.90;99.90;;;;;;5109449;28;20044;-63
2023/03/23 00:38:19;;;;;;;11.52;6.55;;;9.90;99.90;;;;;;5112180;28;20056;-63
2023/03/23 00:40:46;;;;;;;10.27;7.53;;;9.90;99.90;;;;;;5110964;28;20048;-63
2023/03/23 00:43:16;;;;;;;13.30;8.38;;;9.90;99.90;;;;;;5111497;28;20070;-63
2023/03/23 00:45:44;;;;;;;13.45;9.30;;;9.90;99.90;;;;;;5111132;28;20054;-63
2023/03/23 00:48:13;;;;;;;13.20;9.52;;;9.90;99.90;;;;;;5110620;28;20156;-63
2023/03/23 00:50:40;;;;;;;15.27;10.50;;;10.00;99.90;;;;;;5111641;28;20449;-63
2023/03/23 00:53:08;;;;;;;20.65;11.85;;;10.00;99.90;;;;;;5111958;28;20194;-63
2023/03/23 00:55:34;;;;;;;17.10;12.13;;;10.00;99.90;;;;;;5111500;28;20055;-63
2023/03/23 00:58:01;;;;;;;15.98;12.38;;;10.00;99.90;;;;;;5112051;28;20039;-64
2023/03/23 01:00:30;;;;;;;20.83;12.98;;;10.10;99.90;;;;;;5111570;28;20059;-64
2023/03/23 01:02:57;;;;;;;22.13;13.75;;;10.20;99.90;;;;;;5111259;28;20450;-63
2023/03/23 01:05:24;;;;;;;15.38;10.30;;;10.20;99.90;;;;;;5110707;28;20062;-64
2023/03/23 01:07:50;;;;;;;9.38;6.25;;;10.20;99.90;;;;;;5110405;28;20058;-64
2023/03/23 01:10:17;;;;;;;8.57;5.25;;;10.20;99.90;;;;;;5113457;28;20104;-63
2023/03/23 01:12:46;;;;;;;6.32;3.88;;;10.20;99.90;;;;;;5115582;28;20089;-63
2023/03/23 01:15:17;;;;;;;6.43;3.95;;;10.10;99.90;;;;;;5115362;28;20396;-64
2023/03/23 01:17:46;;;;;;;6.07;3.88;;;10.10;99.90;;;;;;5115027;28;20055;-64
2023/03/23 01:20:14;;;;;;;5.53;3.40;;;9.90;99.90;;;;;;5115386;28;20047;-64
2023/03/23 01:22:42;;;;;;;5.00;3.60;;;9.90;99.90;;;;;;5115345;28;20751;-64
2023/03/23 01:25:11;;;;;;;5.78;3.10;;;9.90;99.90;;;;;;5113562;28;20051;-64
2023/03/23 01:27:38;;;;;;;5.72;3.13;;;9.80;99.90;;;;;;5113080;28;20571;-64
2023/03/23 01:30:07;;;;;;;3.53;2.60;;;9.70;99.90;;;;;;5114852;28;20036;-64
2023/03/23 01:32:34;;;;;;;6.00;3.80;;;9.70;99.90;;;;;;5113220;28;20572;-64
2023/03/23 01:35:02;;;;;;;6.45;4.45;;;9.70;99.90;;;;;;5114002;28;20062;-64
2023/03/23 01:37:30;;;;;;;7.05;5.18;;;9.70;99.90;;;;;;5115060;28;20423;-63
2023/03/23 01:39:58;;;;;;;8.95;5.97;;;9.70;99.90;;;;;;5113283;28;20553;-63
2023/03/23 01:42:26;;;;;;;11.52;6.85;;;9.80;99.90;;;;;;5114940;28;20051;-65
2023/03/23 01:45:34;;;;;;;11.70;6.90;;;9.90;99.90;;;;;;5111846;28;20534;-65
2023/03/23 01:48:07;;;;;;;9.63;6.70;;;10.10;99.90;;;;;;5113571;28;20083;-64
2023/03/23 01:50:44;;;;;;;10.15;7.45;;;10.10;99.90;;;;;;5114520;28;20055;-63
2023/03/23 01:53:12;;;;;;;12.35;8.00;;;10.20;99.90;;;;;;5114120;28;20043;-63
2023/03/23 01:55:42;;;;;;;10.50;7.80;;;10.20;99.90;;;;;;5114822;28;20512;-63
2023/03/23 01:58:10;;;;;;;12.85;7.65;;;10.30;99.90;;;;;;5114784;28;20048;-64
2023/03/23 02:00:40;;;;;;;11.52;7.43;;;10.30;99.90;;;;;;5113908;28;20456;-63
2023/03/23 02:03:10;;;;;;;14.15;7.65;;;10.40;99.90;;;;;;5114521;28;20043;-65
2023/03/23 02:05:41;;;;;;;12.63;6.70;;;10.40;99.90;;;;;;5112531;28;20050;-63
2023/03/23 02:08:10;;;;;;;12.95;6.22;;;10.40;99.90;;;;;;5112910;28;20051;-64
2023/03/23 02:10:38;;;;;;;14.50;7.20;;;10.40;99.90;;;;;;5114102;28;20044;-64
2023/03/23 02:13:08;;;;;;;12.93;6.57;;;10.50;99.90;;;;;;5112702;28;20461;-64
2023/03/23 02:15:44;;;;;;;8.20;5.60;;;10.40;99.90;;;;;;5113307;28;20105;-65
2023/03/23 02:18:25;;;;;;;12.52;6.15;;;10.50;99.90;;;;;;5112826;28;20058;-63
2023/03/23 02:21:20;;;;;;;8.93;6.10;;;10.60;99.90;;;;;;5111384;28;20051;-63
2023/03/23 02:24:03;;;;;;;11.27;5.90;;;10.60;99.90;;;;;;5113016;28;20503;-63
2023/03/23 02:26:47;;;;;;;7.72;6.15;;;10.60;99.90;;;;;;5114062;28;20499;-63
2023/03/23 02:29:44;;;;;;;9.20;6.30;;;10.70;99.90;;;;;;5112666;28;20044;-63
2023/03/23 02:32:25;;;;;;;12.05;5.40;;;10.70;99.90;;;;;;5113959;28;20052;-63
2023/03/23 02:34:57;;;;;;;11.10;6.25;;;10.70;99.90;;;;;;5113612;28;20130;-63
2023/03/23 02:37:30;;;;;;;10.02;5.35;;;10.70;99.90;;;;;;5112552;28;20047;-63
2023/03/23 02:40:06;;;;;;;8.43;5.40;;;10.70;99.90;;;;;;5113624;28;20039;-63
2023/03/23 02:42:35;;;;;;;6.53;5.30;;;10.70;99.90;;;;;;5113172;28;20131;-63
2023/03/23 02:45:06;;;;;;;12.77;5.38;;;10.70;99.90;;;;;;5112664;28;20043;-63
2023/03/23 02:47:36;;;;;;;7.72;5.10;;;10.80;99.90;;;;;;5113962;28;20130;-63
2023/03/23 02:50:08;;;;;;;11.50;5.00;;;10.80;99.90;;;;;;5111361;28;20047;-63
2023/03/23 02:52:37;;;;;;;18.10;5.20;;;10.80;99.90;;;;;;5113580;27;20097;-64
2023/03/23 02:55:06;;;;;;;9.02;5.35;;;10.80;99.90;;;;;;5111838;28;20512;-64
2023/03/23 02:57:34;;;;;;;11.15;5.40;;;10.90;99.90;;;;;;5111150;28;20392;-64
2023/03/23 03:00:00;;;;;;;9.70;5.07;;;10.90;99.90;;;;;;5112152;28;20101;-64
2023/03/23 03:02:29;;;;;;;8.88;4.88;;;10.90;99.90;;;;;;5112691;28;20047;-64
2023/03/23 03:05:02;;;;;;;12.75;4.40;;;10.90;99.90;;;;;;5112285;28;20059;-64
2023/03/23 03:07:45;;;;;;;9.40;4.10;;;10.90;99.90;;;;;;5110739;28;20051;-64
2023/03/23 03:10:19;;;;;;;7.82;4.20;;;10.90;99.90;;;;;;5112369;28;20529;-65
2023/03/23 03:12:54;;;;;;;7.20;4.93;;;10.90;99.90;;;;;;5112017;28;20047;-64
2023/03/23 03:15:27;;;;;;;9.48;4.55;;;10.90;99.90;;;;;;5112890;28;20046;-64
2023/03/23 03:18:01;;;;;;;9.38;4.93;;;10.80;99.90;;;;;;5111409;28;20445;-65
2023/03/23 03:20:30;;;;;;;9.65;4.53;;;10.80;99.90;;;;;;5111665;28;20055;-64
2023/03/23 03:22:59;;;;;;;6.70;4.07;;;10.80;99.90;;;;;;5113238;28;20047;-64
2023/03/23 03:25:28;;;;;;;7.78;4.20;;;10.70;99.90;;;;;;5111119;28;20050;-64
2023/03/23 03:27:56;;;;;;;9.10;4.13;;;10.80;99.90;;;;;;5111801;28;20138;-64
2023/03/23 03:30:28;;;;;;;9.30;4.05;;;10.70;99.90;;;;;;5112002;28;20773;-63
2023/03/23 03:33:00;;;;;;;12.32;4.05;;;10.80;99.90;;;;;;5144145;27;20044;-63
2023/03/23 03:35:27;;;;;;;8.07;3.83;;;10.80;99.90;;;;;;5111408;28;20075;-63
2023/03/23 03:37:55;;;;;;;7.88;4.00;;;10.90;99.90;;;;;;5112287;28;20100;-62
2023/03/23 03:40:24;;;;;;;6.95;4.03;;;10.80;99.90;;;;;;5111527;28;20099;-63
2023/03/23 03:42:51;;;;;;;8.73;4.05;;;10.80;99.90;;;;;;5111635;28;20442;-62
2023/03/23 03:45:20;;;;;;;9.82;3.97;;;10.80;99.90;;;;;;5111982;28;20123;-63
2023/03/23 03:47:47;;;;;;;7.35;3.80;;;10.80;99.90;;;;;;5109513;28;20075;-63
2023/03/23 03:50:14;;;;;;;6.68;4.07;;;10.90;99.90;;;;;;5112216;28;20050;-63
2023/03/23 03:52:41;;;;;;;9.43;4.15;;;10.80;99.90;;;;;;5110927;28;20491;-63
2023/03/23 03:55:10;;;;;;;8.70;4.35;;;10.70;99.90;;;;;;5112493;28;20097;-62
2023/03/23 03:57:39;;;;;;;7.88;4.65;;;10.70;99.90;;;;;;5112592;28;20052;-63
2023/03/23 04:00:14;;;;;;;6.88;3.38;;;10.60;99.90;;;;;;5108325;28;20491;-63
2023/03/23 04:02:42;;;;;;;8.80;3.65;;;10.60;99.90;;;;;;5111506;28;20048;-63
2023/03/23 04:05:11;;;;;;;7.30;3.85;;;10.50;99.90;;;;;;5112194;28;20055;-63
2023/03/23 04:07:39;;;;;;;8.35;4.10;;;10.40;99.90;;;;;;5110887;28;20055;-63
2023/03/23 04:10:07;;;;;;;8.65;3.55;;;10.30;99.90;;;;;;5110835;28;20048;-62
2023/03/23 04:12:35;;;;;;;10.18;4.07;;;10.30;99.90;;;;;;5110491;28;20056;-63
2023/03/23 04:15:04;;;;;;;6.43;2.90;;;10.20;99.90;;;;;;5110126;28;20047;-63
2023/03/23 04:17:32;;;;;;;7.93;2.60;;;10.10;99.90;;;;;;5112419;28;20407;-62
2023/03/23 04:19:59;;;;;;;3.55;1.88;;;10.00;99.90;;;;;;5110594;28;20377;-63
2023/03/23 04:22:29;;;;;;;4.07;1.63;;;9.90;99.90;;;;;;5110080;28;20100;-62
2023/03/23 04:24:59;;;;;;;5.57;2.10;;;9.80;99.90;;;;;;5112047;28;20098;-63
2023/03/23 04:27:27;;;;;;;4.63;2.55;;;9.70;99.90;;;;;;5104906;28;20297;-63
2023/03/23 04:29:57;;;;;;;6.78;3.00;;;9.70;99.90;;;;;;5104830;28;20127;-62
2023/03/23 04:32:28;;;;;;;6.93;2.70;;;9.70;99.90;;;;;;5109341;28;20048;-64
2023/03/23 04:34:56;;;;;;;6.43;3.05;;;9.70;99.90;;;;;;5110559;28;20040;-62
2023/03/23 04:37:28;;;;;;;7.95;2.50;;;9.70;99.90;;;;;;5107032;28;20056;-62
2023/03/23 04:40:00;;;;;;;5.88;2.78;;;9.70;99.90;;;;;;5111142;28;20163;-62
2023/03/23 04:42:28;;;;;;;6.30;3.13;;;9.70;99.90;;;;;;5108072;27;20150;-63
2023/03/23 04:44:55;;;;;;;9.38;3.08;;;9.60;99.90;;;;;;5109047;28;20123;-63
2023/03/23 04:47:22;;;;;;;7.05;3.03;;;9.70;99.90;;;;;;5112505;28;20052;-63
2023/03/23 04:49:51;;;;;;;6.80;3.40;;;9.70;99.90;;;;;;5113152;28;20047;-63
2023/03/23 04:52:20;;;;;;;6.72;2.55;;;9.70;99.90;;;;;;5111484;28;20116;-63
2023/03/23 04:54:47;;;;;;;4.38;2.50;;;9.60;99.90;;;;;;5113653;28;20048;-64
2023/03/23 04:57:15;;;;;;;5.55;2.20;;;9.50;99.90;;;;;;5111507;28;20138;-64
2023/03/23 04:59:43;;;;;;;5.03;2.25;;;9.50;99.90;;;;;;5111638;28;20483;-64
2023/03/23 05:02:10;;;;;;;5.95;2.53;;;9.40;99.90;;;;;;5141842;27;20052;-64
2023/03/23 05:04:38;;;;;;;8.50;3.33;;;9.50;99.90;;;;;;5113256;28;20040;-64
2023/03/23 05:07:07;;;;;;;9.40;1.88;;;9.40;99.90;;;;;;5112159;28;20083;-64
2023/03/23 05:09:34;;;;;;;7.13;3.30;;;9.40;99.90;;;;;;5111335;28;20501;-63
2023/03/23 05:12:07;;;;;;;9.18;2.78;;;9.50;99.90;;;;;;5112829;28;20092;-63
2023/03/23 05:14:34;;;;;;;6.45;2.38;;;9.50;99.90;;;;;;5113608;28;20476;-64
2023/03/23 05:17:01;;;;;;;7.78;3.10;;;9.50;99.90;;;;;;5113548;28;20479;-63
2023/03/23 05:19:28;;;;;;;7.43;3.03;;;9.50;99.90;;;;;;5111336;28;20371;-63
2023/03/23 05:22:02;;;;;;;7.78;3.20;;;9.50;99.90;;;;;;5113918;28;20130;-64
2023/03/23 05:24:32;;;;;;;13.43;3.97;;;9.60;99.90;;;;;;5111055;28;20564;-63
2023/03/23 05:27:00;;;;;;;6.45;3.90;;;9.70;99.90;;;;;;5113977;28;20097;-62
2023/03/23 05:29:30;;;;;;;10.02;3.78;;;9.70;99.90;;;;;;5110348;28;20456;-63
2023/03/23 05:31:59;;;;;;;7.70;3.28;;;9.80;99.90;;;;;;5112566;28;20385;-63
2023/03/23 05:34:26;;;;;;;21.55;3.83;;;9.80;99.90;;;;;;5112044;28;20074;-63
2023/03/23 05:36:55;;;;;;;13.57;4.20;;;9.80;99.90;;;;;;5108035;28;20146;-63
2023/03/23 05:39:22;;;;;;;11.93;4.65;;;9.80;99.90;;;;;;5111818;28;20510;-64
2023/03/23 05:41:50;;;;;;;13.48;4.45;;;9.80;99.90;;;;;;5111560;28;20075;-65
2023/03/23 05:44:17;;;;;;;11.40;3.13;;;9.80;99.90;;;;;;5110930;28;20048;-65
2023/03/23 05:46:44;;;;;;;13.77;4.00;;;9.80;99.90;;;;;;5113050;28;20724;-64
2023/03/23 05:49:11;;;;;;;13.98;3.83;;;9.80;99.90;;;;;;5112417;28;20048;-64
2023/03/23 05:51:38;;;;;;;17.63;3.92;;;9.80;99.90;;;;;;5111148;28;20513;-65
2023/03/23 05:54:05;;;;;;;12.85;3.40;;;9.70;99.90;;;;;;5112222;28;20048;-65
2023/03/23 05:56:32;;;;;;;14.30;3.80;;;9.70;99.90;;;;;;5112022;28;20055;-64
2023/03/23 05:59:01;;;;;;;19.08;5.63;;;9.70;99.90;;;;;;5111182;28;20047;-64
2023/03/23 06:01:27;;;;;;;17.55;4.97;;;9.70;99.90;;;;;;5111193;28;20050;-63
2023/03/23 06:03:58;;;;;;;19.45;4.65;;;9.70;99.90;;;;;;5112323;28;20051;-65
2023/03/23 06:06:25;;;;;;;15.38;4.28;;;9.70;99.90;;;;;;5110057;28;20062;-64
2023/03/23 06:08:53;;;;;;;15.50;3.92;;;9.70;99.90;;;;;;5141621;27;20050;-64
2023/03/23 06:11:19;;;;;;;14.63;4.35;;;9.80;99.90;;;;;;5098290;28;20052;-64
2023/03/23 06:13:47;;;;;;;15.18;5.15;;;9.70;99.90;;;;;;5113050;28;20043;-64
2023/03/23 06:16:15;;;;;;;15.52;3.53;;;9.80;99.90;;;;;;5110731;28;21499;-64
2023/03/23 06:18:42;;;;;;;15.70;4.07;;;9.80;99.90;;;;;;5113763;28;20039;-63
2023/03/23 06:21:11;;;;;;;16.70;4.15;;;9.90;99.90;;;;;;5104710;28;20051;-65
2023/03/23 06:23:38;;;;;;;17.88;4.00;;;9.90;99.90;;;;;;5113003;28;20047;-64
2023/03/23 06:26:07;;;;;;;12.55;3.95;;;9.90;99.90;;;;;;5111608;28;20126;-64
2023/03/23 06:28:35;;;;;;;17.95;5.07;;;9.90;99.90;;;;;;5111514;28;20415;-64
2023/03/23 06:31:03;;;;;;;12.80;4.00;;;9.90;99.90;;;;;;5111901;28;20085;-65
2023/03/23 06:33:31;;;;;;;14.13;4.55;;;9.90;99.90;;;;;;5110138;28;20048;-65
2023/03/23 06:35:59;;;;;;;10.45;3.70;;;9.90;99.90;;;;;;5109841;28;20501;-64
2023/03/23 06:38:27;;;;;;;15.30;4.38;;;9.90;99.90;;;;;;5111271;28;20058;-64
2023/03/23 06:40:54;;;;;;;10.70;3.20;;;9.90;99.90;;;;;;5110291;28;20127;-63
2023/03/23 06:43:21;;;;;;;12.93;4.13;;;9.80;99.90;;;;;;5111940;28;20047;-63
2023/03/23 06:45:48;;;;;;;7.57;2.28;;;9.70;99.90;;;;;;5113192;28;20458;-63
2023/03/23 06:48:15;;;;;;;13.23;3.05;;;9.60;99.90;;;;;;5110150;28;20047;-63
2023/03/23 06:50:45;;;;;;;12.07;2.97;;;9.50;99.90;;;;;;5112554;28;20088;-63
2023/03/23 06:53:12;;;;;;;6.47;2.17;;;9.50;99.90;;;;;;5108025;28;20059;-64
2023/03/23 06:55:40;;;;;;;8.00;2.20;;;9.40;99.90;;;;;;5112405;28;20054;-64
2023/03/23 06:58:07;;;;;;;11.50;2.30;;;9.50;99.90;;;;;;5108820;28;20105;-63
2023/03/23 07:00:34;;;;;;;10.95;1.98;;;9.50;99.90;;;;;;5112965;28;20123;-64
2023/03/23 07:03:02;;;;;;;4.78;1.42;;;9.50;99.90;;;;;;5108129;28;20449;-64
2023/03/23 07:05:30;;;;;;;11.73;2.22;;;9.50;99.90;;;;;;5111699;28;20457;-64
2023/03/23 07:07:58;;;;;;;9.82;2.25;;;9.60;99.90;;;;;;5110610;28;20130;-64
2023/03/23 07:10:25;;;;;;;12.52;3.10;;;9.60;99.90;;;;;;5110031;28;20105;-64
2023/03/23 07:12:51;;;;;;;11.85;3.00;;;9.60;99.90;;;;;;5112541;28;20054;-64
2023/03/23 07:15:18;;;;;;;9.68;3.15;;;9.70;99.90;;;;;;5109868;28;20484;-63
2023/03/23 07:17:46;;;;;;;10.60;2.83;;;9.70;99.90;;;;;;5110298;28;20150;-63
2023/03/23 07:20:14;;;;;;;13.88;3.40;;;9.80;99.90;;;;;;5111004;28;20510;-63
2023/03/23 07:22:41;;;;;;;12.43;3.58;;;9.90;99.90;;;;;;5110337;28;20044;-63
2023/03/23 07:25:10;;;;;;;16.67;4.13;;;10.00;99.90;;;;;;5110043;28;20061;-63
2023/03/23 07:27:37;;;;;;;14.90;3.60;;;10.00;99.90;;;;;;5110855;28;20471;-64
2023/03/23 07:30:05;;;;;;;22.75;4.75;;;10.10;99.90;;;;;;5109388;28;20051;-63
2023/03/23 07:32:32;;;;;;;10.30;3.72;;;10.10;99.90;;;;;;5109760;28;20074;-64
2023/03/23 07:34:59;;;;;;;16.48;4.43;;;10.30;99.90;;;;;;5109160;28;20040;-64
2023/03/23 07:37:26;;;;;;;14.50;4.07;;;10.60;99.90;;;;;;5110760;28;20047;-64
2023/03/23 07:39:53;;;;;;;17.85;4.32;;;11.00;99.90;;;;;;5110593;28;20065;-64
2023/03/23 07:42:21;;;;;;;21.85;6.30;;;11.30;99.90;;;;;;5110581;28;20589;-64
2023/03/23 07:44:48;;;;;;;22.08;5.38;;;11.50;99.90;;;;;;5106363;28;20051;-64
2023/03/23 07:47:15;;;;;;;20.83;4.05;;;12.10;99.90;;;;;;5110120;28;20050;-64
2023/03/23 07:49:42;;;;;;;21.13;4.97;;;12.50;99.90;;;;;;5109026;28;20063;-64
2023/03/23 07:52:10;;;;;;;16.20;4.38;;;12.60;99.90;;;;;;5109977;28;20067;-65
2023/03/23 07:54:37;;;;;;;18.40;4.53;;;12.50;99.90;;;;;;5110990;28;20050;-64
2023/03/23 07:57:06;;;;;;;23.02;4.63;;;12.40;99.90;;;;;;5110022;28;20052;-64
2023/03/23 07:59:34;;;;;;;19.25;4.82;;;12.40;99.90;;;;;;5109478;28;20210;-64
2023/03/23 08:02:02;;;;;;;25.33;5.63;;;12.30;99.90;;;;;;5108652;28;20538;-64
2023/03/23 08:04:29;;;;;;;16.13;4.60;;;12.70;99.90;;;;;;5139090;27;20047;-65
2023/03/23 08:06:56;;;;;;;20.98;5.38;;;12.80;99.90;;;;;;5105824;28;20055;-65
2023/03/23 08:09:23;;;;;;;26.40;5.70;;;12.60;99.90;;;;;;5110962;28;20089;-64
2023/03/23 08:11:50;;;;;;;16.42;4.28;;;12.50;99.90;;;;;;5109130;28;20048;-64
2023/03/23 08:14:17;;;;;;;24.92;5.22;;;12.40;99.90;;;;;;5110095;28;20047;-65
2023/03/23 08:16:45;;;;;;;17.63;4.75;;;12.20;99.90;;;;;;5108690;28;20044;-65
2023/03/23 08:19:12;;;;;;;20.90;5.55;;;12.30;99.90;;;;;;5113761;28;20047;-64
2023/03/23 08:21:39;;;;;;;23.02;4.90;;;12.60;99.90;;;;;;5113295;28;20052;-64
2023/03/23 08:24:07;;;;;;;17.80;4.57;;;12.90;99.90;;;;;;5114363;28;20062;-64
2023/03/23 08:26:34;;;;;;;23.65;5.15;;;13.30;99.90;;;;;;5113278;28;20457;-65
2023/03/23 08:29:01;;;;;;;27.05;5.20;;;13.30;99.90;;;;;;5114346;28;20044;-64
2023/03/23 08:31:27;;;;;;;20.38;5.22;;;13.30;99.90;;;;;;5110346;28;20126;-65
2023/03/23 08:33:56;;;;;;;23.02;5.15;;;13.40;99.90;;;;;;5115169;28;20499;-64
2023/03/23 08:36:24;;;;;;;21.55;4.75;;;13.10;99.90;;;;;;5110654;28;20055;-64
2023/03/23 08:38:52;;;;;;;22.52;6.22;;;13.00;99.90;;;;;;5115523;28;20048;-64
2023/03/23 08:41:19;;;;;;;19.88;6.38;;;13.50;99.90;;;;;;5112302;28;20043;-64
2023/03/23 08:43:46;;;;;;;14.30;4.72;;;14.20;99.90;;;;;;5113292;28;20062;-64
2023/03/23 08:46:13;;;;;;;32.88;5.65;;;15.20;99.90;;;;;;5114275;28;20384;-64
2023/03/23 08:48:40;;;;;;;20.25;6.03;;;15.30;99.90;;;;;;5111724;28;20051;-64
2023/03/23 08:51:09;;;;;;;22.38;5.28;;;15.20;99.90;;;;;;5112990;28;20104;-64
2023/03/23 08:53:36;;;;;;;12.98;4.10;;;15.30;99.90;;;;;;5112351;28;20055;-63
2023/03/23 08:56:05;;;;;;;20.08;5.15;;;15.40;99.90;;;;;;5113971;28;20126;-64
2023/03/23 08:58:32;;;;;;;13.95;4.75;;;15.60;99.90;;;;;;5112352;28;20048;-64
2023/03/23 09:00:59;;;;;;;13.25;5.03;;;16.30;99.90;;;;;;5112929;28;20044;-64
2023/03/23 09:03:26;;;;;;;18.48;5.00;;;15.80;99.90;;;;;;5112132;28;20142;-64
2023/03/23 09:05:53;;;;;;;22.60;4.78;;;16.60;99.90;;;;;;5111436;28;20055;-64
2023/03/23 09:08:21;;;;;;;19.83;5.55;;;16.40;99.90;;;;;;5111152;28;20077;-64
2023/03/23 09:10:49;;;;;;;18.25;5.47;;;16.10;99.90;;;;;;5111716;28;20047;-64
2023/03/23 09:13:16;;;;;;;20.05;4.40;;;15.80;99.90;;;;;;5114475;28;20073;-64
2023/03/23 09:15:43;;;;;;;22.45;5.82;;;15.30;99.90;;;;;;5112223;28;20414;-64
2023/03/23 09:18:11;;;;;;;17.92;5.00;;;15.40;99.90;;;;;;5114981;28;20403;-64
2023/03/23 09:20:38;;;;;;;19.50;4.53;;;16.00;99.90;;;;;;5115185;28;20069;-64
2023/03/23 09:23:05;;;;;;;21.13;4.65;;;15.60;99.90;;;;;;5114832;28;20035;-64
2023/03/23 09:25:34;;;;;;;20.45;5.18;;;15.90;99.90;;;;;;5112132;28;20127;-64
2023/03/23 09:28:01;;;;;;;18.83;4.80;;;15.10;99.90;;;;;;5114334;28;20059;-64
2023/03/23 09:30:29;;;;;;;23.40;5.82;;;14.70;99.90;;;;;;5114072;28;20050;-65
2023/03/23 09:32:57;;;;;;;14.85;4.68;;;14.40;99.90;;;;;;5114852;28;20404;-64
2023/03/23 09:35:24;;;;;;;20.38;5.38;;;14.40;99.90;;;;;;5113780;28;20067;-64
2023/03/23 09:37:53;;;;;;;23.38;4.63;;;14.40;99.90;;;;;;5111022;27;20125;-64
2023/03/23 09:40:23;;;;;;;22.67;5.43;;;14.00;99.90;;;;;;5113867;28;20055;-64
2023/03/23 09:43:20;;;;;;;20.98;5.18;;;14.60;99.90;;;;;;5111947;28;20044;-64
2023/03/23 09:45:56;;;;;;;16.27;4.47;;;14.80;99.90;;;;;;5113289;28;20047;-64
2023/03/23 09:48:37;;;;;;;16.48;4.53;;;14.90;99.90;;;;;;5112372;28;20108;-64
2023/03/23 09:51:15;;;;;;;22.58;5.15;;;15.30;99.90;;;;;;5112811;28;20088;-65
2023/03/23 09:53:45;;;;;;;14.98;4.65;;;15.50;99.90;;;;;;5114370;28;20048;-64
2023/03/23 09:56:13;;;;;;;;;;;15.90;99.90;;;;;;5114968;28;20054;-65
2023/03/23 09:58:47;;;;;;;14.95;5.15;;;17.10;99.90;;;;;;5113027;28;19980;-65
2023/03/23 10:01:20;;;;;;;14.88;4.57;;;17.80;99.90;;;;;;5113569;28;20075;-65
2023/03/23 10:03:48;;;;;;;14.45;4.25;;;18.30;99.90;;;;;;5112398;28;20442;-65
2023/03/23 10:06:18;;;;;;;11.93;3.80;;;18.80;99.90;;;;;;5112570;28;20565;-66
2023/03/23 10:08:48;;;;;;;;;;;19.00;99.10;;;;;;5113299;28;20043;-65
2023/03/23 10:11:23;;;;;;;21.90;5.13;;;19.40;99.90;;;;;;5113544;28;19926;-65
2023/03/23 10:14:07;;;;;;;11.88;3.97;;;19.80;99.90;;;;;;5112823;28;20089;-65
2023/03/23 10:16:51;;;;;;;14.38;4.03;;;20.40;96.90;;;;;;5112963;28;20073;-66
2023/03/23 10:19:25;;;;;;;11.52;3.63;;;20.60;97.80;;;;;;5113246;28;20100;-65
2023/03/23 10:21:55;;;;;;;13.02;4.55;;;20.80;97.20;;;;;;5112531;28;20055;-65
2023/03/23 10:24:28;;;;;;;14.23;4.05;;;20.50;94.30;;;;;;5112735;28;20047;-65
2023/03/23 10:27:04;;;;;;;12.15;3.20;;;19.70;96.70;;;;;;5113243;28;20108;-65
2023/03/23 10:29:37;;;;;;;11.93;3.08;;;19.20;95.80;;;;;;5113595;28;20078;-65
2023/03/23 10:32:12;;;;;;;15.93;4.88;;;18.00;96.10;;;;;;5112741;28;20043;-65
2023/03/23 10:34:45;;;;;;;13.77;4.00;;;17.30;98.10;;;;;;5112227;28;20039;-65
2023/03/23 10:37:16;;;;;;;14.05;3.50;;;17.10;99.40;;;;;;5113706;28;20130;-65
2023/03/23 10:39:49;;;;;;;13.32;3.72;;;16.70;99.90;;;;;;5113321;28;20653;-64
2023/03/23 10:42:24;;;;;;;16.38;4.13;;;16.40;99.90;;;;;;5112564;28;20043;-65
2023/03/23 10:44:53;;;;;;;15.73;4.68;;;16.00;99.90;;;;;;5113216;28;20560;-64
2023/03/23 10:47:20;;;;;;;14.45;4.15;;;15.70;99.90;;;;;;5112897;28;20044;-64
2023/03/23 10:49:51;;;;;;;14.45;4.10;;;16.20;99.90;;;;;;5112074;28;20048;-65
2023/03/23 10:52:29;;;;;;;16.27;4.30;;;16.50;99.90;;;;;;5112607;28;20048;-65
2023/03/23 10:54:58;;;;;;;12.57;4.38;;;16.80;99.90;;;;;;5111819;28;20047;-65
2023/03/23 10:57:28;;;;;;;16.85;5.30;;;16.50;99.90;;;;;;5113194;28;20043;-65
2023/03/23 11:00:05;;;;;;;20.85;4.50;;;15.90;99.90;;;;;;5113527;28;20043;-65
2023/03/23 11:02:33;;;;;;;17.25;4.93;;;15.70;99.90;;;;;;5111691;28;20388;-65
2023/03/23 11:05:04;;;;;;;13.48;4.07;;;15.20;99.90;;;;;;5109947;28;20051;-65
2023/03/23 11:07:34;;;;;;;19.42;5.18;;;15.10;99.90;;;;;;5110732;28;20070;-65
2023/03/23 11:10:16;;;;;;;15.48;4.15;;;15.00;99.90;;;;;;5113047;28;20112;-65
2023/03/23 11:12:46;;;;;;;14.80;4.20;;;15.50;99.90;;;;;;5112632;28;20522;-65
2023/03/23 11:15:22;;;;;;;;;;;15.50;99.90;;;;;;5111673;28;20097;-65
2023/03/23 11:17:58;;;;;;;14.23;4.50;;;16.10;99.90;;;;;;5111861;28;20370;-65
2023/03/23 11:20:26;;;;;;;12.93;3.97;;;17.90;99.90;;;;;;5111479;28;20051;-63
2023/03/23 11:22:53;;;;;;;16.80;4.13;;;18.50;99.90;;;;;;5111173;28;20036;-65
2023/03/23 11:25:20;;;;;;;18.15;4.50;;;19.70;99.90;;;;;;5111432;28;20052;-65
2023/03/23 11:27:48;;;;;;;10.60;3.60;;;19.90;99.90;;;;;;5111226;28;20051;-65
2023/03/23 11:30:24;;;;;;;11.20;3.55;;;19.70;98.40;;;;;;5110950;28;20047;-64
2023/03/23 11:32:53;;;;;;;9.88;3.50;;;18.70;98.50;;;;;;5111352;28;20067;-64
2023/03/23 11:35:22;;;;;;;11.65;3.50;;;18.50;99.90;;;;;;5111346;28;20052;-64
2023/03/23 11:37:53;;;;;;;13.95;3.90;;;18.30;99.90;;;;;;5111947;28;20496;-65
2023/03/23 11:40:21;;;;;;;;;;;18.50;99.60;;;;;;5109944;28;20564;-65
2023/03/23 11:42:50;;;;;;;10.65;3.80;;;19.10;98.80;;;;;;5112140;28;19924;-65
2023/03/23 11:45:25;;;;;;;9.48;3.10;;;20.00;98.40;;;;;;5111430;28;20082;-64
2023/03/23 11:48:00;;;;;;;10.05;2.78;;;20.50;96.40;;;;;;5111052;28;20500;-65
2023/03/23 11:50:32;;;;;;;12.50;2.80;;;19.80;95.40;;;;;;5112070;28;20126;-65
2023/03/23 11:53:05;;;;;;;12.68;3.42;;;19.30;95.40;;;;;;5143666;27;20650;-65
2023/03/23 11:55:38;;;;;;;17.30;3.20;;;19.30;95.60;;;;;;5111251;28;20619;-65
2023/03/23 11:58:13;;;;;;;8.60;3.17;;;19.00;96.80;;;;;;5111821;28;20054;-64
2023/03/23 12:00:48;;;;;;;8.07;2.83;;;19.40;96.50;;;;;;5110619;28;20097;-65
2023/03/23 12:03:16;;;;;;;10.13;2.80;;;20.10;95.70;;;;;;5112134;28;20483;-65
2023/03/23 12:05:51;;;;;;;17.33;3.55;;;21.10;93.70;;;;;;5111803;28;20095;-65
2023/03/23 12:08:35;;;;;;;10.32;2.60;;;21.20;91.50;;;;;;5111455;28;20473;-65
2023/03/23 12:11:12;;;;;;;9.75;2.60;;;21.40;91.70;;;;;;5109449;28;20047;-65
2023/03/23 12:13:55;;;;;;;7.32;2.60;;;21.50;90.40;;;;;;5112179;28;20491;-65
2023/03/23 12:16:39;;;;;;;8.77;3.05;;;21.60;91.10;;;;;;5111237;28;20445;-65
2023/03/23 12:19:13;;;;;;;12.15;3.45;;;21.00;90.40;;;;;;5110294;28;20054;-64
2023/03/23 12:21:51;;;;;;;7.68;2.63;;;20.40;91.60;;;;;;5100884;28;20058;-63
2023/03/23 12:24:29;;;;;;;14.20;3.40;;;20.60;91.20;;;;;;5105103;28;20043;-65
2023/03/23 12:27:01;;;;;;;8.90;2.60;;;20.50;91.60;;;;;;5107434;28;20055;-64
2023/03/23 12:29:46;;;;;;;9.55;2.78;;;20.10;90.00;;;;;;5136182;27;20083;-65
2023/03/23 12:32:47;;;;;;;7.05;2.45;;;19.90;91.10;;;;;;5108554;28;20075;-65
2023/03/23 12:35:26;;;;;;;9.93;2.67;;;18.80;91.00;;;;;;5106427;28;20043;-64
2023/03/23 12:38:07;;;;;;;7.93;2.50;;;18.20;91.60;;;;;;5108534;28;20051;-64
2023/03/23 12:40:46;;;;;;;8.48;2.70;;;18.10;92.10;;;;;;5106125;28;20449;-64
2023/03/23 12:43:18;;;;;;;10.30;3.10;;;18.50;93.00;;;;;;5111032;28;20046;-65
2023/03/23 12:46:23;;;;;;;9.93;2.80;;;18.70;92.60;;;;;;5106773;28;20043;-65
2023/03/23 12:48:56;;;;;;;14.55;2.67;;;19.10;92.30;;;;;;5008400;28;20042;-65
2023/03/23 12:51:33;;;;;;;8.55;2.63;;;18.50;91.50;;;;;;5092788;28;20087;-65
2023/03/23 12:54:08;;;;;;;13.52;3.35;;;17.50;93.20;;;;;;5107037;28;20044;-64
2023/03/23 12:56:40;;;;;;;9.43;2.63;;;16.80;95.30;;;;;;5108809;28;20055;-63
2023/03/23 12:59:13;;;;;;;6.57;2.30;;;16.20;94.90;;;;;;5107693;28;20043;-63
2023/03/23 13:01:43;;;;;;;9.50;2.97;;;16.10;94.40;;;;;;5109848;28;20040;-63